^^
Paulen-Weather Station Historical Data
Daily Summary for January 24, 2022 Units:  Metric    English   Both
Daily Weekly Monthly Yearly Custom
  High: Low: Average:
Temperature: 8 °C 6 °C 6.9 °C
Dew Point: 6 °C 4 °C 5.4 °C
Humidity: 94% 85% 90%
Wind Speed: 26km/h 3km/h 13.2km/h
Wind Gust: 15km/h - -
Wind- - NW
Pressure: 1026.65 hPa 1023.71 hPa -
Precipitation: 0 mm    
Historical Graphs
 
 
Tabular Data for January 24, 2022
Time Temperature Dew Point Pressure Wind Wind Speed Wind Gust Humidity Rainfall Rate (Hourly) solar
00:04 6 °C 5 °C 1026.65 hPa NNW 14 km/h 9 km/h 89% 0 mm 0 W/m2
00:09 6 °C 5 °C 1026.52 hPa NW 14 km/h 11 km/h 90% 0 mm 0 W/m2
00:14 6 °C 5 °C 1026.45 hPa NW 20 km/h 12 km/h 90% 0 mm 0 W/m2
00:19 6 °C 5 °C 1026.52 hPa NW 20 km/h 13 km/h 91% 0 mm 0 W/m2
00:24 6 °C 5 °C 1026.45 hPa NW 18 km/h 9 km/h 91% 0 mm 0 W/m2
00:29 6 °C 5 °C 1026.48 hPa NNW 17 km/h 11 km/h 91% 0 mm 0 W/m2
00:34 6 °C 5 °C 1026.52 hPa NNW 17 km/h 12 km/h 91% 0 mm 0 W/m2
00:39 6 °C 5 °C 1026.45 hPa NW 19 km/h 12 km/h 91% 0 mm 0 W/m2
00:44 6 °C 5 °C 1026.48 hPa NW 19 km/h 14 km/h 91% 0 mm 0 W/m2
00:49 6 °C 5 °C 1026.45 hPa NNW 21 km/h 11 km/h 91% 0 mm 0 W/m2
00:54 6 °C 5 °C 1026.41 hPa NW 24 km/h 14 km/h 92% 0 mm 0 W/m2
00:59 6 °C 5 °C 1026.38 hPa NW 21 km/h 13 km/h 92% 0 mm 0 W/m2
01:04 6 °C 5 °C 1026.45 hPa NW 13 km/h 10 km/h 93% 0 mm 0 W/m2
01:09 6 °C 5 °C 1026.41 hPa NW 10 km/h 8 km/h 93% 0 mm 0 W/m2
01:14 6 °C 5 °C 1026.45 hPa NW 15 km/h 10 km/h 94% 0 mm 0 W/m2
01:19 6 °C 5 °C 1026.45 hPa NW 14 km/h 10 km/h 94% 0 mm 0 W/m2
01:24 6 °C 5 °C 1026.45 hPa NW 11 km/h 10 km/h 94% 0 mm 0 W/m2
01:29 6 °C 5 °C 1026.48 hPa NW 15 km/h 8 km/h 94% 0 mm 0 W/m2
01:34 6 °C 5 °C 1026.48 hPa NNW 16 km/h 9 km/h 94% 0 mm 0 W/m2
01:39 6 °C 5 °C 1026.48 hPa NW 13 km/h 8 km/h 94% 0 mm 0 W/m2
01:44 6 °C 5 °C 1026.41 hPa NW 15 km/h 9 km/h 94% 0 mm 0 W/m2
01:49 6 °C 5 °C 1026.28 hPa NW 14 km/h 12 km/h 93% 0 mm 0 W/m2
01:54 6 °C 5 °C 1026.28 hPa WNW 21 km/h 15 km/h 93% 0 mm 0 W/m2
01:59 6 °C 5 °C 1026.18 hPa NW 14 km/h 8 km/h 93% 0 mm 0 W/m2
02:04 6 °C 5 °C 1026.04 hPa NW 21 km/h 14 km/h 92% 0 mm 0 W/m2
02:09 6 °C 5 °C 1026.08 hPa NW 16 km/h 13 km/h 92% 0 mm 0 W/m2
02:14 6 °C 5 °C 1026.08 hPa NW 10 km/h 9 km/h 92% 0 mm 0 W/m2
02:19 6 °C 5 °C 1026.04 hPa NW 11 km/h 9 km/h 92% 0 mm 0 W/m2
02:24 6 °C 5 °C 1026.08 hPa NW 14 km/h 14 km/h 92% 0 mm 0 W/m2
02:29 6 °C 5 °C 1026.08 hPa NW 17 km/h 12 km/h 91% 0 mm 0 W/m2
02:34 6 °C 5 °C 1026.08 hPa NW 14 km/h 11 km/h 91% 0 mm 0 W/m2
02:39 6 °C 5 °C 1025.97 hPa NW 14 km/h 9 km/h 91% 0 mm 0 W/m2
02:44 6 °C 5 °C 1025.94 hPa NW 16 km/h 10 km/h 91% 0 mm 0 W/m2
02:49 6 °C 5 °C 1025.87 hPa NW 16 km/h 12 km/h 91% 0 mm 0 W/m2
02:54 6 °C 5 °C 1025.77 hPa NW 17 km/h 11 km/h 91% 0 mm 0 W/m2
02:59 6 °C 5 °C 1025.8 hPa NW 18 km/h 14 km/h 91% 0 mm 0 W/m2
03:04 6 °C 5 °C 1025.77 hPa NNW 15 km/h 10 km/h 91% 0 mm 0 W/m2
03:09 6 °C 5 °C 1025.77 hPa NW 17 km/h 12 km/h 91% 0 mm 0 W/m2
03:14 6 °C 5 °C 1025.84 hPa WNW 15 km/h 11 km/h 91% 0 mm 0 W/m2
03:19 6 °C 5 °C 1025.77 hPa NW 16 km/h 9 km/h 91% 0 mm 0 W/m2
03:24 6 °C 5 °C 1025.7 hPa NW 18 km/h 12 km/h 90% 0 mm 0 W/m2
03:29 6 °C 5 °C 1025.64 hPa NNW 22 km/h 14 km/h 90% 0 mm 0 W/m2
03:34 6 °C 5 °C 1025.7 hPa NW 21 km/h 10 km/h 89% 0 mm 0 W/m2
03:39 6 °C 5 °C 1025.67 hPa NW 17 km/h 11 km/h 89% 0 mm 0 W/m2
03:44 6 °C 5 °C 1025.7 hPa NW 21 km/h 11 km/h 88% 0 mm 0 W/m2
03:49 6 °C 5 °C 1025.67 hPa NW 15 km/h 9 km/h 88% 0 mm 0 W/m2
03:54 6 °C 5 °C 1025.67 hPa NW 20 km/h 11 km/h 88% 0 mm 0 W/m2
03:59 6 °C 5 °C 1025.7 hPa N 10 km/h 6 km/h 88% 0 mm 0 W/m2
04:04 6 °C 5 °C 1025.7 hPa NW 16 km/h 10 km/h 88% 0 mm 0 W/m2
04:09 6 °C 5 °C 1025.7 hPa NNW 17 km/h 10 km/h 88% 0 mm 0 W/m2
04:14 6 °C 5 °C 1025.53 hPa NW 17 km/h 10 km/h 88% 0 mm 0 W/m2
04:19 6 °C 5 °C 1025.53 hPa NW 13 km/h 7 km/h 88% 0 mm 0 W/m2
04:24 6 °C 5 °C 1025.53 hPa NW 16 km/h 11 km/h 88% 0 mm 0 W/m2
04:29 6 °C 4 °C 1025.57 hPa NW 16 km/h 13 km/h 87% 0 mm 0 W/m2
04:34 6 °C 4 °C 1025.53 hPa NW 16 km/h 10 km/h 87% 0 mm 0 W/m2
04:39 6 °C 4 °C 1025.5 hPa NW 14 km/h 12 km/h 87% 0 mm 0 W/m2
04:44 6 °C 4 °C 1025.43 hPa NW 18 km/h 13 km/h 86% 0 mm 0 W/m2
04:49 6 °C 4 °C 1025.36 hPa NW 15 km/h 11 km/h 86% 0 mm 0 W/m2
04:54 6 °C 4 °C 1025.4 hPa NW 11 km/h 9 km/h 86% 0 mm 0 W/m2
04:59 6 °C 4 °C 1025.36 hPa NW 13 km/h 9 km/h 86% 0 mm 0 W/m2
05:04 7 °C 4 °C 1025.3 hPa NW 12 km/h 11 km/h 86% 0 mm 0 W/m2
05:09 7 °C 4 °C 1025.33 hPa NW 13 km/h 11 km/h 86% 0 mm 0 W/m2
05:14 7 °C 4 °C 1025.3 hPa NW 15 km/h 10 km/h 86% 0 mm 0 W/m2
05:19 7 °C 4 °C 1025.26 hPa NW 16 km/h 11 km/h 85% 0 mm 0 W/m2
05:24 7 °C 4 °C 1025.16 hPa NW 17 km/h 9 km/h 86% 0 mm 0 W/m2
05:29 7 °C 4 °C 1025.13 hPa WNW 16 km/h 10 km/h 86% 0 mm 0 W/m2
05:34 7 °C 5 °C 1025.09 hPa NNW 16 km/h 10 km/h 86% 0 mm 0 W/m2
05:39 7 °C 5 °C 1025.06 hPa NW 14 km/h 7 km/h 87% 0 mm 0 W/m2
05:44 7 °C 5 °C 1025.06 hPa NW 13 km/h 9 km/h 87% 0 mm 0 W/m2
05:49 7 °C 5 °C 1025.03 hPa NW 15 km/h 13 km/h 87% 0 mm 0 W/m2
05:54 7 °C 5 °C 1025.03 hPa NW 17 km/h 13 km/h 88% 0 mm 0 W/m2
05:59 7 °C 5 °C 1025.03 hPa NNW 13 km/h 14 km/h 88% 0 mm 0 W/m2
06:04 7 °C 5 °C 1024.99 hPa NW 14 km/h 13 km/h 88% 0 mm 0 W/m2
06:09 7 °C 5 °C 1024.92 hPa NW 20 km/h 14 km/h 88% 0 mm 0 W/m2
06:14 7 °C 5 °C 1024.96 hPa NW 20 km/h 14 km/h 88% 0 mm 0 W/m2
06:19 7 °C 5 °C 1024.92 hPa NW 18 km/h 10 km/h 89% 0 mm 0 W/m2
06:24 7 °C 5 °C 1024.89 hPa NW 20 km/h 12 km/h 89% 0 mm 0 W/m2
06:29 7 °C 5 °C 1024.99 hPa NNW 18 km/h 13 km/h 89% 0 mm 0 W/m2
06:34 7 °C 5 °C 1025.06 hPa NW 17 km/h 15 km/h 89% 0 mm 0 W/m2
06:39 7 °C 5 °C 1025.16 hPa NW 13 km/h 8 km/h 89% 0 mm 0 W/m2
06:44 7 °C 5 °C 1025.13 hPa NNW 13 km/h 8 km/h 89% 0 mm 0 W/m2
06:49 7 °C 5 °C 1025.09 hPa NW 20 km/h 11 km/h 89% 0 mm 0 W/m2
06:54 7 °C 5 °C 1025.06 hPa NW 16 km/h 10 km/h 89% 0 mm 0 W/m2
06:59 7 °C 5 °C 1025.16 hPa NW 14 km/h 9 km/h 89% 0 mm 0 W/m2
07:04 7 °C 5 °C 1025.2 hPa NNW 21 km/h 11 km/h 89% 0 mm 0 W/m2
07:09 7 °C 5 °C 1025.26 hPa NW 10 km/h 7 km/h 89% 0 mm 0 W/m2
07:14 7 °C 5 °C 1025.26 hPa NW 20 km/h 15 km/h 89% 0 mm 0 W/m2
07:15 7 °C 5 °C 1025.2 hPa NW 26 km/h 13 km/h 89% 0 mm 0 W/m2
07:34 7 °C 5 °C 1025.3 hPa NNW 11 km/h 3 km/h 88% 0 mm 0 W/m2
09:14 7 °C 5 °C 1025.33 hPa NW 18 km/h 7 km/h 90% 0 mm 5 W/m2
09:19 7 °C 5 °C 1025.33 hPa WNW 17 km/h 10 km/h 90% 0 mm 7 W/m2
09:24 7 °C 5 °C 1025.3 hPa NW 15 km/h 12 km/h 90% 0 mm 9 W/m2
09:29 7 °C 5 °C 1025.3 hPa NW 19 km/h 15 km/h 90% 0 mm 9 W/m2
09:34 7 °C 5 °C 1025.3 hPa NW 20 km/h 14 km/h 90% 0 mm 7 W/m2
10:08 7 °C 5 °C 1025.06 hPa NNW 16 km/h 9 km/h 89% 0 mm 42 W/m2
10:14 7 °C 5 °C 1024.99 hPa NNW 19 km/h 12 km/h 89% 0 mm 44 W/m2
10:16 7 °C 5 °C 1024.96 hPa NW 16 km/h 8 km/h 89% 0 mm 44 W/m2
10:24 7 °C 5 °C 1025.13 hPa NW 8 km/h 7 km/h 89% 0 mm 46 W/m2
10:29 7 °C 5 °C 1025.13 hPa NW 13 km/h 9 km/h 89% 0 mm 42 W/m2
10:34 7 °C 5 °C 1025.06 hPa NNW 17 km/h 13 km/h 89% 0 mm 42 W/m2
10:39 7 °C 5 °C 1025.03 hPa NNW 20 km/h 9 km/h 89% 0 mm 62 W/m2
10:44 7 °C 5 °C 1024.99 hPa NW 14 km/h 10 km/h 89% 0 mm 69 W/m2
10:49 7 °C 5 °C 1024.79 hPa NNW 15 km/h 9 km/h 89% 0 mm 56 W/m2
10:54 7 °C 5 °C 1024.82 hPa NW 16 km/h 9 km/h 89% 0 mm 70 W/m2
10:59 7 °C 5 °C 1024.86 hPa NNW 17 km/h 12 km/h 89% 0 mm 81 W/m2
11:04 7 °C 5 °C 1024.96 hPa NW 15 km/h 11 km/h 89% 0 mm 116 W/m2
11:09 7 °C 5 °C 1025.03 hPa NNW 14 km/h 12 km/h 89% 0 mm 125 W/m2
11:14 7 °C 6 °C 1025.06 hPa WNW 16 km/h 14 km/h 89% 0 mm 91 W/m2
11:19 7 °C 5 °C 1025.13 hPa NNW 12 km/h 11 km/h 88% 0 mm 134 W/m2
11:24 7 °C 6 °C 1025.13 hPa NW 14 km/h 11 km/h 88% 0 mm 134 W/m2
11:29 7 °C 6 °C 1025.09 hPa NNW 12 km/h 9 km/h 89% 0 mm 86 W/m2
11:34 7 °C 6 °C 1025.06 hPa WNW 15 km/h 11 km/h 89% 0 mm 88 W/m2
11:39 7 °C 6 °C 1024.96 hPa NW 14 km/h 9 km/h 89% 0 mm 83 W/m2
11:44 7 °C 6 °C 1024.89 hPa NW 16 km/h 12 km/h 89% 0 mm 79 W/m2
11:49 7 °C 6 °C 1024.86 hPa WNW 18 km/h 9 km/h 89% 0 mm 97 W/m2
11:54 7 °C 6 °C 1024.96 hPa WNW 17 km/h 13 km/h 89% 0 mm 146 W/m2
11:59 7 °C 6 °C 1024.96 hPa WNW 14 km/h 9 km/h 88% 0 mm 114 W/m2
12:04 8 °C 6 °C 1024.96 hPa NW 15 km/h 12 km/h 88% 0 mm 95 W/m2
12:09 8 °C 6 °C 1024.96 hPa NW 11 km/h 8 km/h 88% 0 mm 114 W/m2
12:14 8 °C 6 °C 1024.92 hPa NW 18 km/h 11 km/h 87% 0 mm 109 W/m2
12:19 8 °C 6 °C 1024.92 hPa NNW 14 km/h 10 km/h 87% 0 mm 91 W/m2
12:24 8 °C 6 °C 1024.92 hPa NW 18 km/h 8 km/h 87% 0 mm 95 W/m2
12:29 8 °C 6 °C 1024.92 hPa WNW 13 km/h 9 km/h 87% 0 mm 93 W/m2
12:34 8 °C 6 °C 1024.89 hPa WNW 15 km/h 8 km/h 86% 0 mm 123 W/m2
12:39 8 °C 6 °C 1024.89 hPa NW 18 km/h 10 km/h 86% 0 mm 113 W/m2
12:44 8 °C 6 °C 1024.86 hPa NW 15 km/h 9 km/h 86% 0 mm 142 W/m2
12:49 8 °C 6 °C 1024.82 hPa NW 14 km/h 8 km/h 85% 0 mm 178 W/m2
12:54 8 °C 6 °C 1024.92 hPa NW 18 km/h 10 km/h 85% 0 mm 218 W/m2
12:59 8 °C 6 °C 1024.92 hPa WNW 13 km/h 10 km/h 85% 0 mm 185 W/m2
13:04 8 °C 6 °C 1024.89 hPa WNW 17 km/h 10 km/h 85% 0 mm 113 W/m2
13:09 8 °C 6 °C 1024.92 hPa NW 12 km/h 10 km/h 85% 0 mm 107 W/m2
13:14 8 °C 6 °C 1024.99 hPa NW 12 km/h 9 km/h 85% 0 mm 91 W/m2
13:19 8 °C 6 °C 1024.92 hPa NW 14 km/h 9 km/h 85% 0 mm 84 W/m2
13:24 8 °C 6 °C 1025.03 hPa WNW 14 km/h 8 km/h 85% 0 mm 65 W/m2
13:29 8 °C 6 °C 1025.03 hPa WNW 14 km/h 7 km/h 85% 0 mm 53 W/m2
13:34 8 °C 6 °C 1024.99 hPa NW 14 km/h 8 km/h 86% 0 mm 67 W/m2
13:39 8 °C 6 °C 1024.96 hPa NW 11 km/h 8 km/h 86% 0 mm 69 W/m2
13:44 8 °C 6 °C 1024.89 hPa NW 14 km/h 9 km/h 86% 0 mm 69 W/m2
13:49 8 °C 6 °C 1024.89 hPa NW 15 km/h 10 km/h 86% 0 mm 88 W/m2
13:54 8 °C 6 °C 1024.72 hPa NW 14 km/h 10 km/h 86% 0 mm 135 W/m2
13:59 8 °C 6 °C 1024.69 hPa NW 13 km/h 9 km/h 86% 0 mm 102 W/m2
14:04 8 °C 6 °C 1024.72 hPa NNW 13 km/h 8 km/h 86% 0 mm 54 W/m2
14:09 8 °C 6 °C 1024.65 hPa NNW 15 km/h 11 km/h 86% 0 mm 54 W/m2
14:14 8 °C 6 °C 1024.62 hPa NNW 19 km/h 13 km/h 87% 0 mm 47 W/m2
14:19 8 °C 6 °C 1024.62 hPa NNW 18 km/h 12 km/h 87% 0 mm 60 W/m2
14:24 8 °C 6 °C 1024.59 hPa NW 16 km/h 11 km/h 88% 0 mm 77 W/m2
14:29 8 °C 6 °C 1024.52 hPa NW 14 km/h 8 km/h 88% 0 mm 98 W/m2
14:34 8 °C 6 °C 1024.45 hPa WNW 17 km/h 9 km/h 89% 0 mm 91 W/m2
14:39 8 °C 6 °C 1024.42 hPa NW 18 km/h 11 km/h 89% 0 mm 67 W/m2
14:44 8 °C 6 °C 1024.38 hPa NW 14 km/h 9 km/h 89% 0 mm 100 W/m2
14:49 8 °C 6 °C 1024.45 hPa NW 19 km/h 14 km/h 89% 0 mm 91 W/m2
14:54 8 °C 6 °C 1024.42 hPa NW 13 km/h 10 km/h 89% 0 mm 70 W/m2
14:59 8 °C 6 °C 1024.42 hPa NW 13 km/h 9 km/h 89% 0 mm 58 W/m2
15:04 8 °C 6 °C 1024.38 hPa NW 13 km/h 9 km/h 89% 0 mm 53 W/m2
15:09 8 °C 6 °C 1024.31 hPa NW 13 km/h 12 km/h 89% 0 mm 42 W/m2
15:14 8 °C 6 °C 1024.42 hPa NW 15 km/h 11 km/h 89% 0 mm 37 W/m2
15:19 8 °C 6 °C 1024.45 hPa NW 14 km/h 10 km/h 89% 0 mm 39 W/m2
15:24 8 °C 6 °C 1024.45 hPa NW 13 km/h 10 km/h 89% 0 mm 33 W/m2
15:29 8 °C 6 °C 1024.45 hPa NW 16 km/h 11 km/h 89% 0 mm 28 W/m2
15:34 8 °C 6 °C 1024.48 hPa NW 8 km/h 6 km/h 89% 0 mm 32 W/m2
15:39 8 °C 6 °C 1024.45 hPa WNW 8 km/h 10 km/h 89% 0 mm 26 W/m2
15:44 8 °C 6 °C 1024.52 hPa WNW 13 km/h 8 km/h 89% 0 mm 28 W/m2
15:49 8 °C 6 °C 1024.48 hPa WNW 12 km/h 8 km/h 89% 0 mm 28 W/m2
15:54 8 °C 6 °C 1024.48 hPa NW 12 km/h 9 km/h 89% 0 mm 21 W/m2
15:59 8 °C 6 °C 1024.48 hPa NNW 14 km/h 11 km/h 89% 0 mm 19 W/m2
16:04 8 °C 6 °C 1024.45 hPa NW 10 km/h 7 km/h 89% 0 mm 18 W/m2
16:09 8 °C 6 °C 1024.48 hPa NW 12 km/h 11 km/h 89% 0 mm 12 W/m2
16:14 8 °C 6 °C 1024.52 hPa NW 16 km/h 14 km/h 89% 0 mm 9 W/m2
16:19 8 °C 6 °C 1024.52 hPa NNW 15 km/h 14 km/h 90% 0 mm 9 W/m2
16:24 8 °C 6 °C 1024.52 hPa NNW 12 km/h 10 km/h 90% 0 mm 9 W/m2
16:29 8 °C 6 °C 1024.52 hPa NNW 13 km/h 10 km/h 91% 0 mm 7 W/m2
16:34 8 °C 6 °C 1024.52 hPa N 15 km/h 10 km/h 91% 0 mm 5 W/m2
16:39 8 °C 6 °C 1024.55 hPa NNW 13 km/h 10 km/h 91% 0 mm 5 W/m2
16:44 7 °C 6 °C 1024.55 hPa WNW 11 km/h 10 km/h 92% 0 mm 0 W/m2
16:49 7 °C 6 °C 1024.59 hPa NNW 12 km/h 10 km/h 92% 0 mm 0 W/m2
16:54 7 °C 6 °C 1024.55 hPa WNW 12 km/h 10 km/h 92% 0 mm 0 W/m2
16:59 7 °C 6 °C 1024.55 hPa NW 13 km/h 12 km/h 92% 0 mm 0 W/m2
17:04 7 °C 6 °C 1024.45 hPa N 14 km/h 11 km/h 93% 0 mm 0 W/m2
17:09 7 °C 6 °C 1024.38 hPa NW 14 km/h 10 km/h 93% 0 mm 0 W/m2
17:14 7 °C 6 °C 1024.38 hPa NW 13 km/h 9 km/h 93% 0 mm 0 W/m2
17:19 7 °C 6 °C 1024.25 hPa WNW 11 km/h 10 km/h 93% 0 mm 0 W/m2
17:24 7 °C 6 °C 1024.18 hPa NNW 12 km/h 7 km/h 93% 0 mm 0 W/m2
17:29 7 °C 6 °C 1024.08 hPa WNW 9 km/h 8 km/h 93% 0 mm 0 W/m2
17:34 7 °C 6 °C 1024.04 hPa WNW 11 km/h 8 km/h 93% 0 mm 0 W/m2
17:39 7 °C 6 °C 1023.98 hPa WNW 12 km/h 5 km/h 93% 0 mm 0 W/m2
17:44 7 °C 6 °C 1023.94 hPa WNW 7 km/h 4 km/h 93% 0 mm 0 W/m2
17:49 7 °C 6 °C 1023.87 hPa NW 13 km/h 11 km/h 93% 0 mm 0 W/m2
17:54 7 °C 6 °C 1023.81 hPa WNW 13 km/h 9 km/h 93% 0 mm 0 W/m2
17:59 7 °C 6 °C 1023.77 hPa NW 12 km/h 9 km/h 93% 0 mm 0 W/m2
18:04 7 °C 6 °C 1023.74 hPa NW 12 km/h 5 km/h 93% 0 mm 0 W/m2
18:09 7 °C 6 °C 1023.84 hPa WNW 12 km/h 8 km/h 93% 0 mm 0 W/m2
18:14 7 °C 6 °C 1023.84 hPa NW 13 km/h 6 km/h 93% 0 mm 0 W/m2
18:19 7 °C 6 °C 1023.81 hPa NW 13 km/h 7 km/h 93% 0 mm 0 W/m2
18:24 7 °C 6 °C 1023.84 hPa WNW 10 km/h 5 km/h 93% 0 mm 0 W/m2
18:29 7 °C 6 °C 1023.87 hPa NW 12 km/h 8 km/h 93% 0 mm 0 W/m2
18:34 7 °C 6 °C 1023.91 hPa WNW 12 km/h 8 km/h 94% 0 mm 0 W/m2
18:39 7 °C 6 °C 1023.87 hPa NNW 10 km/h 7 km/h 94% 0 mm 0 W/m2
18:44 7 °C 6 °C 1023.87 hPa NW 8 km/h 4 km/h 94% 0 mm 0 W/m2
18:49 7 °C 6 °C 1023.91 hPa W 8 km/h 3 km/h 94% 0 mm 0 W/m2
18:54 7 °C 6 °C 1023.87 hPa WNW 9 km/h 5 km/h 94% 0 mm 0 W/m2
18:59 7 °C 6 °C 1023.87 hPa NW 7 km/h 5 km/h 94% 0 mm 0 W/m2
19:04 7 °C 6 °C 1023.84 hPa NW 12 km/h 8 km/h 94% 0 mm 0 W/m2
19:09 7 °C 6 °C 1023.77 hPa NNW 12 km/h 10 km/h 93% 0 mm 0 W/m2
19:14 7 °C 6 °C 1023.74 hPa WNW 13 km/h 9 km/h 93% 0 mm 0 W/m2
19:19 7 °C 6 °C 1023.71 hPa WNW 6 km/h 5 km/h 93% 0 mm 0 W/m2
19:24 7 °C 6 °C 1023.81 hPa WNW 5 km/h 3 km/h 93% 0 mm 0 W/m2
19:29 7 °C 6 °C 1024.04 hPa NW 6 km/h 4 km/h 93% 0 mm 0 W/m2
19:34 7 °C 6 °C 1024.18 hPa WNW 4 km/h 3 km/h 93% 0 mm 0 W/m2
19:39 7 °C 6 °C 1024.35 hPa NNE 3 km/h 3 km/h 93% 0 mm 0 W/m2
19:44 7 °C 6 °C 1024.52 hPa WNW 4 km/h 2 km/h 93% 0 mm 0 W/m2
19:49 7 °C 6 °C 1024.65 hPa W 4 km/h 4 km/h 93% 0 mm 0 W/m2
19:54 7 °C 6 °C 1024.82 hPa WNW 6 km/h 6 km/h 93% 0 mm 0 W/m2
19:59 7 °C 6 °C 1024.89 hPa NW 9 km/h 7 km/h 94% 0 mm 0 W/m2
20:04 7 °C 6 °C 1024.99 hPa WNW 8 km/h 7 km/h 93% 0 mm 0 W/m2
20:09 7 °C 6 °C 1025.03 hPa W 8 km/h 8 km/h 93% 0 mm 0 W/m2
20:14 7 °C 6 °C 1025.09 hPa WNW 10 km/h 9 km/h 93% 0 mm 0 W/m2
20:19 7 °C 6 °C 1025.13 hPa N 8 km/h 8 km/h 93% 0 mm 0 W/m2
20:24 7 °C 6 °C 1025.23 hPa W 6 km/h 5 km/h 93% 0 mm 0 W/m2
20:29 7 °C 6 °C 1025.33 hPa WNW 6 km/h 5 km/h 93% 0 mm 0 W/m2
20:34 7 °C 6 °C 1025.33 hPa N 6 km/h 6 km/h 93% 0 mm 0 W/m2
20:39 7 °C 6 °C 1025.33 hPa W 5 km/h 5 km/h 93% 0 mm 0 W/m2
20:44 7 °C 6 °C 1025.36 hPa W 7 km/h 6 km/h 93% 0 mm 0 W/m2
20:49 7 °C 6 °C 1025.4 hPa W 10 km/h 9 km/h 92% 0 mm 0 W/m2
20:54 7 °C 6 °C 1025.47 hPa W 5 km/h 3 km/h 92% 0 mm 0 W/m2
20:59 7 °C 6 °C 1025.57 hPa W 5 km/h 3 km/h 91% 0 mm 0 W/m2
21:04 7 °C 6 °C 1025.77 hPa W 3 km/h 2 km/h 91% 0 mm 0 W/m2
21:09 7 °C 6 °C 1025.91 hPa W 3 km/h 2 km/h 91% 0 mm 0 W/m2
21:14 7 °C 6 °C 1025.91 hPa W 5 km/h 5 km/h 92% 0 mm 0 W/m2
21:19 7 °C 6 °C 1025.91 hPa W 6 km/h 6 km/h 92% 0 mm 0 W/m2
21:24 7 °C 6 °C 1025.8 hPa W 7 km/h 6 km/h 91% 0 mm 0 W/m2
21:29 7 °C 6 °C 1025.77 hPa W 5 km/h 3 km/h 91% 0 mm 0 W/m2
21:34 7 °C 5 °C 1025.77 hPa WNW 8 km/h 4 km/h 91% 0 mm 0 W/m2
21:39 7 °C 5 °C 1025.84 hPa WNW 8 km/h 6 km/h 91% 0 mm 0 W/m2
21:44 7 °C 5 °C 1025.91 hPa WNW 7 km/h 4 km/h 91% 0 mm 0 W/m2
21:49 7 °C 5 °C 1025.94 hPa WNW 7 km/h 5 km/h 91% 0 mm 0 W/m2
21:54 7 °C 5 °C 1025.97 hPa WNW 6 km/h 5 km/h 91% 0 mm 0 W/m2
21:59 7 °C 5 °C 1026.04 hPa WNW 6 km/h 5 km/h 91% 0 mm 0 W/m2
22:04 7 °C 5 °C 1026.04 hPa WNW 9 km/h 5 km/h 91% 0 mm 0 W/m2
22:09 7 °C 5 °C 1026.04 hPa WNW 8 km/h 4 km/h 91% 0 mm 0 W/m2
22:14 7 °C 5 °C 1026.01 hPa WNW 7 km/h 4 km/h 91% 0 mm 0 W/m2
22:19 7 °C 5 °C 1025.97 hPa WNW 10 km/h 6 km/h 90% 0 mm 0 W/m2
22:24 7 °C 5 °C 1025.94 hPa NW 8 km/h 7 km/h 90% 0 mm 0 W/m2
22:29 7 °C 5 °C 1025.94 hPa NW 10 km/h 5 km/h 90% 0 mm 0 W/m2
22:34 7 °C 5 °C 1025.94 hPa NW 10 km/h 8 km/h 90% 0 mm 0 W/m2
22:39 7 °C 5 °C 1026.04 hPa NW 14 km/h 9 km/h 89% 0 mm 0 W/m2
22:44 7 °C 5 °C 1026.04 hPa NW 16 km/h 9 km/h 88% 0 mm 0 W/m2
22:49 7 °C 5 °C 1026.01 hPa NW 11 km/h 10 km/h 88% 0 mm 0 W/m2
22:54 7 °C 5 °C 1025.97 hPa NW 16 km/h 10 km/h 87% 0 mm 0 W/m2
22:59 6 °C 4 °C 1025.97 hPa NNW 10 km/h 8 km/h 87% 0 mm 0 W/m2
23:04 6 °C 5 °C 1025.97 hPa NW 6 km/h 4 km/h 88% 0 mm 0 W/m2
23:09 6 °C 4 °C 1026.01 hPa WNW 13 km/h 8 km/h 88% 0 mm 0 W/m2
23:14 6 °C 4 °C 1026.01 hPa NW 9 km/h 5 km/h 88% 0 mm 0 W/m2
23:19 6 °C 4 °C 1026.11 hPa WNW 7 km/h 4 km/h 88% 0 mm 0 W/m2
23:24 6 °C 4 °C 1026.11 hPa WNW 10 km/h 5 km/h 87% 0 mm 0 W/m2
23:29 6 °C 4 °C 1026.14 hPa WNW 5 km/h 2 km/h 87% 0 mm 0 W/m2
23:34 6 °C 4 °C 1026.14 hPa WNW 6 km/h 6 km/h 86% 0 mm 0 W/m2
23:39 6 °C 4 °C 1026.11 hPa WNW 9 km/h 8 km/h 86% 0 mm 0 W/m2
23:44 6 °C 4 °C 1026.11 hPa WNW 5 km/h 3 km/h 85% 0 mm 0 W/m2
23:49 6 °C 4 °C 1026.21 hPa WNW 4 km/h 2 km/h 85% 0 mm 0 W/m2
23:54 6 °C 4 °C 1026.21 hPa WNW 4 km/h 3 km/h 86% 0 mm 0 W/m2
23:59 6 °C 4 °C 1026.18 hPa WNW 7 km/h 4 km/h 86% 0 mm 0 W/m2
Compliments of Weather Underground - 2 mb